sensor_id;sensor_type;location;lat;lon;timestamp;P1;durP1;ratioP1;P2;durP2;ratioP2
75890;SDS011;64571;47.512;19.054;2022-12-07T00:02:07;21.05;;;11.45;;
75890;SDS011;64571;47.512;19.054;2022-12-07T00:05:10;25.30;;;13.02;;
75890;SDS011;64571;47.512;19.054;2022-12-07T00:08:12;21.43;;;11.67;;
75890;SDS011;64571;47.512;19.054;2022-12-07T00:11:19;22.55;;;11.70;;
75890;SDS011;64571;47.512;19.054;2022-12-07T00:14:22;20.42;;;10.70;;
75890;SDS011;64571;47.512;19.054;2022-12-07T00:17:25;22.90;;;11.68;;
75890;SDS011;64571;47.512;19.054;2022-12-07T00:20:27;18.23;;;9.32;;
75890;SDS011;64571;47.512;19.054;2022-12-07T00:23:29;20.00;;;10.63;;
75890;SDS011;64571;47.512;19.054;2022-12-07T00:26:35;20.27;;;10.10;;
75890;SDS011;64571;47.512;19.054;2022-12-07T00:29:40;24.95;;;11.52;;
75890;SDS011;64571;47.512;19.054;2022-12-07T00:32:42;25.52;;;12.02;;
75890;SDS011;64571;47.512;19.054;2022-12-07T00:35:45;23.25;;;12.15;;
75890;SDS011;64571;47.512;19.054;2022-12-07T00:38:47;22.47;;;10.87;;
75890;SDS011;64571;47.512;19.054;2022-12-07T00:41:50;21.85;;;10.98;;
75890;SDS011;64571;47.512;19.054;2022-12-07T00:44:52;29.10;;;12.40;;
75890;SDS011;64571;47.512;19.054;2022-12-07T00:47:55;27.15;;;12.65;;
75890;SDS011;64571;47.512;19.054;2022-12-07T00:50:57;26.90;;;11.48;;
75890;SDS011;64571;47.512;19.054;2022-12-07T00:54:01;23.33;;;11.80;;
75890;SDS011;64571;47.512;19.054;2022-12-07T00:57:03;22.40;;;12.07;;
75890;SDS011;64571;47.512;19.054;2022-12-07T01:00:06;22.10;;;11.35;;
75890;SDS011;64571;47.512;19.054;2022-12-07T01:03:10;23.65;;;11.60;;
75890;SDS011;64571;47.512;19.054;2022-12-07T01:06:15;24.87;;;11.80;;
75890;SDS011;64571;47.512;19.054;2022-12-07T01:09:18;22.60;;;11.27;;
75890;SDS011;64571;47.512;19.054;2022-12-07T01:12:21;23.12;;;10.70;;
75890;SDS011;64571;47.512;19.054;2022-12-07T01:15:23;20.67;;;10.50;;
75890;SDS011;64571;47.512;19.054;2022-12-07T01:18:27;22.00;;;10.15;;
75890;SDS011;64571;47.512;19.054;2022-12-07T01:21:32;18.75;;;10.52;;
75890;SDS011;64571;47.512;19.054;2022-12-07T01:24:40;19.07;;;9.87;;
75890;SDS011;64571;47.512;19.054;2022-12-07T01:27:42;17.50;;;8.68;;
75890;SDS011;64571;47.512;19.054;2022-12-07T01:30:44;20.55;;;9.05;;
75890;SDS011;64571;47.512;19.054;2022-12-07T01:33:48;16.35;;;8.13;;
75890;SDS011;64571;47.512;19.054;2022-12-07T01:36:52;15.02;;;8.00;;
75890;SDS011;64571;47.512;19.054;2022-12-07T01:39:54;15.97;;;7.90;;
75890;SDS011;64571;47.512;19.054;2022-12-07T01:42:57;15.25;;;8.25;;
75890;SDS011;64571;47.512;19.054;2022-12-07T01:46:00;16.67;;;8.27;;
75890;SDS011;64571;47.512;19.054;2022-12-07T01:49:04;16.10;;;8.30;;
75890;SDS011;64571;47.512;19.054;2022-12-07T01:55:17;17.17;;;8.03;;
75890;SDS011;64571;47.512;19.054;2022-12-07T01:58:20;17.08;;;8.15;;
75890;SDS011;64571;47.512;19.054;2022-12-07T02:01:23;15.98;;;7.90;;
75890;SDS011;64571;47.512;19.054;2022-12-07T02:04:26;15.10;;;7.45;;
75890;SDS011;64571;47.512;19.054;2022-12-07T02:07:29;15.63;;;7.55;;
75890;SDS011;64571;47.512;19.054;2022-12-07T02:10:33;14.30;;;7.53;;
75890;SDS011;64571;47.512;19.054;2022-12-07T02:13:36;18.67;;;8.98;;
75890;SDS011;64571;47.512;19.054;2022-12-07T02:16:45;18.65;;;9.65;;
75890;SDS011;64571;47.512;19.054;2022-12-07T02:23:07;18.15;;;9.60;;
75890;SDS011;64571;47.512;19.054;2022-12-07T02:35:59;21.52;;;9.32;;
75890;SDS011;64571;47.512;19.054;2022-12-07T02:39:31;20.02;;;9.68;;
75890;SDS011;64571;47.512;19.054;2022-12-07T02:42:43;17.43;;;9.37;;
75890;SDS011;64571;47.512;19.054;2022-12-07T02:45:52;18.42;;;9.15;;
75890;SDS011;64571;47.512;19.054;2022-12-07T02:48:58;21.67;;;9.60;;
75890;SDS011;64571;47.512;19.054;2022-12-07T02:52:01;20.77;;;9.25;;
75890;SDS011;64571;47.512;19.054;2022-12-07T02:55:05;17.70;;;9.70;;
75890;SDS011;64571;47.512;19.054;2022-12-07T02:58:16;20.70;;;9.53;;
75890;SDS011;64571;47.512;19.054;2022-12-07T03:01:39;17.98;;;8.98;;
75890;SDS011;64571;47.512;19.054;2022-12-07T03:08:50;20.25;;;8.88;;
75890;SDS011;64571;47.512;19.054;2022-12-07T03:12:18;17.45;;;8.38;;
75890;SDS011;64571;47.512;19.054;2022-12-07T03:15:27;18.67;;;9.57;;
75890;SDS011;64571;47.512;19.054;2022-12-07T03:18:48;20.23;;;9.48;;
75890;SDS011;64571;47.512;19.054;2022-12-07T03:22:02;19.35;;;9.10;;
75890;SDS011;64571;47.512;19.054;2022-12-07T03:25:09;21.55;;;10.82;;
75890;SDS011;64571;47.512;19.054;2022-12-07T03:28:14;20.02;;;9.95;;
75890;SDS011;64571;47.512;19.054;2022-12-07T03:31:22;21.43;;;10.73;;
75890;SDS011;64571;47.512;19.054;2022-12-07T03:34:33;26.83;;;12.98;;
75890;SDS011;64571;47.512;19.054;2022-12-07T03:41:05;22.75;;;12.05;;
75890;SDS011;64571;47.512;19.054;2022-12-07T03:44:10;18.58;;;10.25;;
75890;SDS011;64571;47.512;19.054;2022-12-07T03:47:31;21.27;;;9.70;;
75890;SDS011;64571;47.512;19.054;2022-12-07T03:50:42;22.70;;;10.35;;
75890;SDS011;64571;47.512;19.054;2022-12-07T03:54:13;17.00;;;8.88;;
75890;SDS011;64571;47.512;19.054;2022-12-07T03:57:20;20.33;;;10.52;;
75890;SDS011;64571;47.512;19.054;2022-12-07T04:00:26;26.98;;;13.62;;
75890;SDS011;64571;47.512;19.054;2022-12-07T04:03:29;23.73;;;12.90;;
75890;SDS011;64571;47.512;19.054;2022-12-07T04:06:31;27.58;;;12.13;;
75890;SDS011;64571;47.512;19.054;2022-12-07T04:09:33;21.95;;;11.65;;
75890;SDS011;64571;47.512;19.054;2022-12-07T04:12:36;22.00;;;10.82;;
75890;SDS011;64571;47.512;19.054;2022-12-07T04:15:39;21.73;;;11.65;;
75890;SDS011;64571;47.512;19.054;2022-12-07T04:18:41;23.17;;;11.53;;
75890;SDS011;64571;47.512;19.054;2022-12-07T04:21:43;23.52;;;11.35;;
75890;SDS011;64571;47.512;19.054;2022-12-07T04:24:46;18.90;;;11.32;;
75890;SDS011;64571;47.512;19.054;2022-12-07T04:27:49;21.85;;;10.07;;
75890;SDS011;64571;47.512;19.054;2022-12-07T04:30:51;18.55;;;10.00;;
75890;SDS011;64571;47.512;19.054;2022-12-07T04:33:53;21.77;;;10.53;;
75890;SDS011;64571;47.512;19.054;2022-12-07T04:36:56;14.55;;;7.35;;
75890;SDS011;64571;47.512;19.054;2022-12-07T04:39:58;16.30;;;7.50;;
75890;SDS011;64571;47.512;19.054;2022-12-07T04:43:01;15.55;;;7.70;;
75890;SDS011;64571;47.512;19.054;2022-12-07T04:46:04;16.08;;;7.30;;
75890;SDS011;64571;47.512;19.054;2022-12-07T04:49:06;14.37;;;6.20;;
75890;SDS011;64571;47.512;19.054;2022-12-07T04:52:09;11.68;;;5.40;;
75890;SDS011;64571;47.512;19.054;2022-12-07T04:55:11;10.93;;;5.37;;
75890;SDS011;64571;47.512;19.054;2022-12-07T04:58:14;15.52;;;6.20;;
75890;SDS011;64571;47.512;19.054;2022-12-07T05:01:17;16.75;;;8.10;;
75890;SDS011;64571;47.512;19.054;2022-12-07T05:04:20;16.30;;;8.20;;
75890;SDS011;64571;47.512;19.054;2022-12-07T05:07:22;15.65;;;8.35;;
75890;SDS011;64571;47.512;19.054;2022-12-07T05:10:24;16.25;;;7.93;;
75890;SDS011;64571;47.512;19.054;2022-12-07T05:13:27;14.85;;;7.40;;
75890;SDS011;64571;47.512;19.054;2022-12-07T05:16:30;14.55;;;7.05;;
75890;SDS011;64571;47.512;19.054;2022-12-07T05:19:32;12.33;;;6.00;;
75890;SDS011;64571;47.512;19.054;2022-12-07T05:22:35;13.02;;;5.72;;
75890;SDS011;64571;47.512;19.054;2022-12-07T05:25:37;11.45;;;5.20;;
75890;SDS011;64571;47.512;19.054;2022-12-07T05:28:40;11.50;;;5.97;;
75890;SDS011;64571;47.512;19.054;2022-12-07T05:31:43;10.13;;;4.85;;
75890;SDS011;64571;47.512;19.054;2022-12-07T05:34:46;11.00;;;5.63;;
75890;SDS011;64571;47.512;19.054;2022-12-07T05:37:49;13.25;;;6.15;;
75890;SDS011;64571;47.512;19.054;2022-12-07T05:40:51;12.35;;;6.15;;
75890;SDS011;64571;47.512;19.054;2022-12-07T05:43:54;12.32;;;5.82;;
75890;SDS011;64571;47.512;19.054;2022-12-07T05:46:57;12.10;;;5.90;;
75890;SDS011;64571;47.512;19.054;2022-12-07T05:50:00;11.90;;;5.03;;
75890;SDS011;64571;47.512;19.054;2022-12-07T05:53:03;10.18;;;4.68;;
75890;SDS011;64571;47.512;19.054;2022-12-07T05:56:05;14.15;;;6.07;;
75890;SDS011;64571;47.512;19.054;2022-12-07T05:59:08;12.35;;;6.22;;
75890;SDS011;64571;47.512;19.054;2022-12-07T06:02:26;13.55;;;6.57;;
75890;SDS011;64571;47.512;19.054;2022-12-07T06:05:30;13.37;;;6.27;;
75890;SDS011;64571;47.512;19.054;2022-12-07T06:08:32;13.70;;;6.40;;
75890;SDS011;64571;47.512;19.054;2022-12-07T06:11:34;12.37;;;6.10;;
75890;SDS011;64571;47.512;19.054;2022-12-07T06:14:55;12.68;;;6.30;;
75890;SDS011;64571;47.512;19.054;2022-12-07T06:17:58;13.62;;;5.93;;
75890;SDS011;64571;47.512;19.054;2022-12-07T06:21:00;14.73;;;6.70;;
75890;SDS011;64571;47.512;19.054;2022-12-07T06:24:03;14.95;;;7.50;;
75890;SDS011;64571;47.512;19.054;2022-12-07T06:27:05;14.75;;;7.18;;
75890;SDS011;64571;47.512;19.054;2022-12-07T06:30:08;20.73;;;7.03;;
75890;SDS011;64571;47.512;19.054;2022-12-07T06:33:11;14.45;;;7.30;;
75890;SDS011;64571;47.512;19.054;2022-12-07T06:36:13;15.73;;;7.70;;
75890;SDS011;64571;47.512;19.054;2022-12-07T06:39:16;14.60;;;7.30;;
75890;SDS011;64571;47.512;19.054;2022-12-07T06:42:22;22.52;;;7.70;;
75890;SDS011;64571;47.512;19.054;2022-12-07T06:45:24;15.43;;;7.07;;
75890;SDS011;64571;47.512;19.054;2022-12-07T06:48:27;14.93;;;8.05;;
75890;SDS011;64571;47.512;19.054;2022-12-07T06:51:30;15.10;;;7.90;;
75890;SDS011;64571;47.512;19.054;2022-12-07T06:54:38;15.85;;;7.37;;
75890;SDS011;64571;47.512;19.054;2022-12-07T06:57:40;14.93;;;7.70;;
75890;SDS011;64571;47.512;19.054;2022-12-07T07:00:43;16.73;;;8.40;;
75890;SDS011;64571;47.512;19.054;2022-12-07T07:03:47;16.87;;;9.00;;
75890;SDS011;64571;47.512;19.054;2022-12-07T07:06:49;14.97;;;8.53;;
75890;SDS011;64571;47.512;19.054;2022-12-07T07:09:59;16.42;;;8.18;;
75890;SDS011;64571;47.512;19.054;2022-12-07T07:13:02;16.90;;;8.55;;
75890;SDS011;64571;47.512;19.054;2022-12-07T07:16:05;17.02;;;8.98;;
75890;SDS011;64571;47.512;19.054;2022-12-07T07:19:09;17.70;;;9.18;;
75890;SDS011;64571;47.512;19.054;2022-12-07T07:22:11;22.00;;;9.63;;
75890;SDS011;64571;47.512;19.054;2022-12-07T07:25:14;24.63;;;10.27;;
75890;SDS011;64571;47.512;19.054;2022-12-07T07:28:16;20.88;;;10.05;;
75890;SDS011;64571;47.512;19.054;2022-12-07T07:31:19;18.42;;;9.32;;
75890;SDS011;64571;47.512;19.054;2022-12-07T07:34:22;21.73;;;10.77;;
75890;SDS011;64571;47.512;19.054;2022-12-07T07:37:24;18.93;;;10.57;;
75890;SDS011;64571;47.512;19.054;2022-12-07T07:40:27;21.67;;;11.68;;
75890;SDS011;64571;47.512;19.054;2022-12-07T07:43:32;20.33;;;10.38;;
75890;SDS011;64571;47.512;19.054;2022-12-07T07:46:34;21.37;;;10.88;;
75890;SDS011;64571;47.512;19.054;2022-12-07T07:49:37;22.65;;;10.93;;
75890;SDS011;64571;47.512;19.054;2022-12-07T07:52:47;21.13;;;11.20;;
75890;SDS011;64571;47.512;19.054;2022-12-07T07:55:53;19.25;;;9.65;;
75890;SDS011;64571;47.512;19.054;2022-12-07T07:58:56;20.05;;;9.73;;
75890;SDS011;64571;47.512;19.054;2022-12-07T08:01:58;19.37;;;9.93;;
75890;SDS011;64571;47.512;19.054;2022-12-07T08:05:01;19.90;;;9.77;;
75890;SDS011;64571;47.512;19.054;2022-12-07T08:08:04;22.13;;;10.47;;
75890;SDS011;64571;47.512;19.054;2022-12-07T08:11:07;22.52;;;10.75;;
75890;SDS011;64571;47.512;19.054;2022-12-07T08:14:10;19.87;;;9.50;;
75890;SDS011;64571;47.512;19.054;2022-12-07T08:17:13;18.55;;;9.88;;
75890;SDS011;64571;47.512;19.054;2022-12-07T08:20:15;18.60;;;10.30;;
75890;SDS011;64571;47.512;19.054;2022-12-07T08:23:18;20.13;;;10.63;;
75890;SDS011;64571;47.512;19.054;2022-12-07T08:26:24;18.27;;;9.32;;
75890;SDS011;64571;47.512;19.054;2022-12-07T08:29:26;19.20;;;9.90;;
75890;SDS011;64571;47.512;19.054;2022-12-07T08:32:28;18.62;;;9.13;;
75890;SDS011;64571;47.512;19.054;2022-12-07T08:35:32;19.17;;;10.35;;
75890;SDS011;64571;47.512;19.054;2022-12-07T08:38:36;16.70;;;7.37;;
75890;SDS011;64571;47.512;19.054;2022-12-07T08:41:39;18.67;;;9.02;;
75890;SDS011;64571;47.512;19.054;2022-12-07T08:44:42;19.37;;;9.50;;
75890;SDS011;64571;47.512;19.054;2022-12-07T08:51:00;16.17;;;8.02;;
75890;SDS011;64571;47.512;19.054;2022-12-07T08:54:05;15.27;;;6.60;;
75890;SDS011;64571;47.512;19.054;2022-12-07T08:57:10;16.92;;;8.60;;
75890;SDS011;64571;47.512;19.054;2022-12-07T09:00:14;15.95;;;8.32;;
75890;SDS011;64571;47.512;19.054;2022-12-07T09:03:16;18.27;;;8.95;;
75890;SDS011;64571;47.512;19.054;2022-12-07T09:06:19;17.25;;;8.60;;
75890;SDS011;64571;47.512;19.054;2022-12-07T09:09:22;17.00;;;8.33;;
75890;SDS011;64571;47.512;19.054;2022-12-07T09:12:24;16.98;;;7.95;;
75890;SDS011;64571;47.512;19.054;2022-12-07T09:15:27;19.60;;;9.18;;
75890;SDS011;64571;47.512;19.054;2022-12-07T09:18:31;15.57;;;8.07;;
75890;SDS011;64571;47.512;19.054;2022-12-07T09:21:33;15.05;;;7.68;;
75890;SDS011;64571;47.512;19.054;2022-12-07T09:24:36;13.97;;;6.83;;
75890;SDS011;64571;47.512;19.054;2022-12-07T09:27:38;15.73;;;7.32;;
75890;SDS011;64571;47.512;19.054;2022-12-07T09:30:48;13.43;;;6.80;;
75890;SDS011;64571;47.512;19.054;2022-12-07T09:34:11;16.35;;;7.20;;
75890;SDS011;64571;47.512;19.054;2022-12-07T09:37:13;16.20;;;7.12;;
75890;SDS011;64571;47.512;19.054;2022-12-07T09:40:16;13.17;;;6.87;;
75890;SDS011;64571;47.512;19.054;2022-12-07T09:43:22;13.45;;;6.35;;
75890;SDS011;64571;47.512;19.054;2022-12-07T09:46:27;12.77;;;6.80;;
75890;SDS011;64571;47.512;19.054;2022-12-07T09:49:30;12.77;;;5.72;;
75890;SDS011;64571;47.512;19.054;2022-12-07T09:52:34;13.15;;;5.87;;
75890;SDS011;64571;47.512;19.054;2022-12-07T09:55:40;9.17;;;4.77;;
75890;SDS011;64571;47.512;19.054;2022-12-07T09:58:45;13.27;;;5.57;;
75890;SDS011;64571;47.512;19.054;2022-12-07T10:01:49;11.88;;;6.03;;
75890;SDS011;64571;47.512;19.054;2022-12-07T10:04:52;12.37;;;5.10;;
75890;SDS011;64571;47.512;19.054;2022-12-07T10:07:55;10.63;;;5.35;;
75890;SDS011;64571;47.512;19.054;2022-12-07T10:10:59;10.33;;;5.13;;
75890;SDS011;64571;47.512;19.054;2022-12-07T10:14:12;11.55;;;5.18;;
75890;SDS011;64571;47.512;19.054;2022-12-07T10:24:15;9.65;;;4.60;;
75890;SDS011;64571;47.512;19.054;2022-12-07T10:27:19;10.20;;;4.60;;
75890;SDS011;64571;47.512;19.054;2022-12-07T10:30:24;10.73;;;5.40;;
75890;SDS011;64571;47.512;19.054;2022-12-07T10:33:28;8.80;;;3.95;;
75890;SDS011;64571;47.512;19.054;2022-12-07T10:37:11;9.13;;;4.20;;
75890;SDS011;64571;47.512;19.054;2022-12-07T10:40:26;8.90;;;4.12;;
75890;SDS011;64571;47.512;19.054;2022-12-07T10:43:29;8.00;;;3.60;;
75890;SDS011;64571;47.512;19.054;2022-12-07T10:57:04;10.18;;;5.25;;
75890;SDS011;64571;47.512;19.054;2022-12-07T11:00:36;11.70;;;5.20;;
75890;SDS011;64571;47.512;19.054;2022-12-07T11:07:13;12.90;;;6.30;;
75890;SDS011;64571;47.512;19.054;2022-12-07T11:10:44;14.18;;;6.45;;
75890;SDS011;64571;47.512;19.054;2022-12-07T11:14:02;11.75;;;6.37;;
75890;SDS011;64571;47.512;19.054;2022-12-07T11:21:06;12.40;;;6.12;;
75890;SDS011;64571;47.512;19.054;2022-12-07T11:30:34;14.90;;;7.28;;
75890;SDS011;64571;47.512;19.054;2022-12-07T11:37:10;13.43;;;6.50;;
75890;SDS011;64571;47.512;19.054;2022-12-07T11:40:20;13.15;;;6.65;;
75890;SDS011;64571;47.512;19.054;2022-12-07T11:46:42;15.05;;;7.70;;
75890;SDS011;64571;47.512;19.054;2022-12-07T11:49:49;13.23;;;6.67;;
75890;SDS011;64571;47.512;19.054;2022-12-07T11:59:23;11.43;;;6.37;;
75890;SDS011;64571;47.512;19.054;2022-12-07T12:06:01;13.03;;;6.50;;
75890;SDS011;64571;47.512;19.054;2022-12-07T12:16:52;13.32;;;6.87;;
75890;SDS011;64571;47.512;19.054;2022-12-07T12:23:34;13.40;;;7.03;;
75890;SDS011;64571;47.512;19.054;2022-12-07T12:26:40;14.18;;;7.75;;
75890;SDS011;64571;47.512;19.054;2022-12-07T12:29:54;13.30;;;7.35;;
75890;SDS011;64571;47.512;19.054;2022-12-07T12:33:05;15.85;;;7.60;;
75890;SDS011;64571;47.512;19.054;2022-12-07T12:39:37;13.93;;;7.40;;
75890;SDS011;64571;47.512;19.054;2022-12-07T12:42:43;12.82;;;6.40;;
75890;SDS011;64571;47.512;19.054;2022-12-07T12:45:50;16.98;;;7.12;;
75890;SDS011;64571;47.512;19.054;2022-12-07T12:59:36;15.15;;;6.40;;
75890;SDS011;64571;47.512;19.054;2022-12-07T13:02:47;15.75;;;6.45;;
75890;SDS011;64571;47.512;19.054;2022-12-07T13:09:27;12.75;;;6.90;;
75890;SDS011;64571;47.512;19.054;2022-12-07T13:12:33;14.20;;;7.03;;
75890;SDS011;64571;47.512;19.054;2022-12-07T13:18:41;12.63;;;6.90;;
75890;SDS011;64571;47.512;19.054;2022-12-07T13:21:44;14.25;;;6.10;;
75890;SDS011;64571;47.512;19.054;2022-12-07T13:24:47;14.18;;;6.87;;
75890;SDS011;64571;47.512;19.054;2022-12-07T13:27:57;11.57;;;6.10;;
75890;SDS011;64571;47.512;19.054;2022-12-07T13:31:51;14.80;;;5.90;;
75890;SDS011;64571;47.512;19.054;2022-12-07T13:34:44;10.80;;;5.37;;
75890;SDS011;64571;47.512;19.054;2022-12-07T13:37:48;13.82;;;5.87;;
75890;SDS011;64571;47.512;19.054;2022-12-07T13:44:33;13.03;;;6.23;;
75890;SDS011;64571;47.512;19.054;2022-12-07T13:47:43;16.48;;;7.10;;
75890;SDS011;64571;47.512;19.054;2022-12-07T13:50:55;15.80;;;7.20;;
75890;SDS011;64571;47.512;19.054;2022-12-07T13:54:08;17.37;;;7.18;;
75890;SDS011;64571;47.512;19.054;2022-12-07T13:57:13;12.63;;;6.28;;
75890;SDS011;64571;47.512;19.054;2022-12-07T14:00:19;15.40;;;6.60;;
75890;SDS011;64571;47.512;19.054;2022-12-07T14:03:33;18.52;;;7.07;;
75890;SDS011;64571;47.512;19.054;2022-12-07T14:06:46;14.60;;;7.20;;
75890;SDS011;64571;47.512;19.054;2022-12-07T14:12:58;17.85;;;7.82;;
75890;SDS011;64571;47.512;19.054;2022-12-07T14:16:14;15.10;;;7.40;;
75890;SDS011;64571;47.512;19.054;2022-12-07T14:22:54;24.15;;;7.35;;
75890;SDS011;64571;47.512;19.054;2022-12-07T14:32:28;19.00;;;7.20;;
75890;SDS011;64571;47.512;19.054;2022-12-07T14:35:32;14.23;;;7.12;;
75890;SDS011;64571;47.512;19.054;2022-12-07T14:38:34;14.63;;;7.00;;
75890;SDS011;64571;47.512;19.054;2022-12-07T14:41:37;17.05;;;7.03;;
75890;SDS011;64571;47.512;19.054;2022-12-07T14:44:52;19.08;;;8.63;;
75890;SDS011;64571;47.512;19.054;2022-12-07T14:47:55;13.20;;;6.83;;
75890;SDS011;64571;47.512;19.054;2022-12-07T14:51:17;15.52;;;7.68;;
75890;SDS011;64571;47.512;19.054;2022-12-07T14:54:40;16.33;;;7.50;;
75890;SDS011;64571;47.512;19.054;2022-12-07T14:57:43;18.15;;;8.70;;
75890;SDS011;64571;47.512;19.054;2022-12-07T15:00:46;14.20;;;6.78;;
75890;SDS011;64571;47.512;19.054;2022-12-07T15:03:49;14.90;;;6.97;;
75890;SDS011;64571;47.512;19.054;2022-12-07T15:06:59;15.70;;;6.97;;
75890;SDS011;64571;47.512;19.054;2022-12-07T15:10:08;13.27;;;7.22;;
75890;SDS011;64571;47.512;19.054;2022-12-07T15:13:32;19.90;;;7.72;;
75890;SDS011;64571;47.512;19.054;2022-12-07T15:16:52;15.38;;;7.25;;
75890;SDS011;64571;47.512;19.054;2022-12-07T15:20:11;18.57;;;7.87;;
75890;SDS011;64571;47.512;19.054;2022-12-07T15:23:15;13.57;;;7.18;;
75890;SDS011;64571;47.512;19.054;2022-12-07T15:26:18;14.30;;;6.87;;
75890;SDS011;64571;47.512;19.054;2022-12-07T15:29:20;16.20;;;7.28;;
75890;SDS011;64571;47.512;19.054;2022-12-07T15:32:25;15.48;;;7.35;;
75890;SDS011;64571;47.512;19.054;2022-12-07T15:35:27;15.73;;;7.20;;
75890;SDS011;64571;47.512;19.054;2022-12-07T15:38:30;14.02;;;6.72;;
75890;SDS011;64571;47.512;19.054;2022-12-07T15:41:52;16.77;;;7.28;;
75890;SDS011;64571;47.512;19.054;2022-12-07T15:44:55;13.50;;;6.70;;
75890;SDS011;64571;47.512;19.054;2022-12-07T15:48:07;16.48;;;7.62;;
75890;SDS011;64571;47.512;19.054;2022-12-07T15:51:29;15.90;;;7.10;;
75890;SDS011;64571;47.512;19.054;2022-12-07T15:54:32;15.60;;;6.90;;
75890;SDS011;64571;47.512;19.054;2022-12-07T15:57:36;18.33;;;7.53;;
75890;SDS011;64571;47.512;19.054;2022-12-07T16:00:39;14.55;;;7.03;;
75890;SDS011;64571;47.512;19.054;2022-12-07T16:03:41;15.25;;;7.57;;
75890;SDS011;64571;47.512;19.054;2022-12-07T16:06:44;18.47;;;8.73;;
75890;SDS011;64571;47.512;19.054;2022-12-07T16:09:47;17.95;;;7.35;;
75890;SDS011;64571;47.512;19.054;2022-12-07T16:12:51;20.62;;;7.05;;
75890;SDS011;64571;47.512;19.054;2022-12-07T16:15:53;15.35;;;7.15;;
75890;SDS011;64571;47.512;19.054;2022-12-07T16:18:56;15.23;;;7.00;;
75890;SDS011;64571;47.512;19.054;2022-12-07T16:21:59;14.03;;;6.37;;
75890;SDS011;64571;47.512;19.054;2022-12-07T16:25:02;13.77;;;6.57;;
75890;SDS011;64571;47.512;19.054;2022-12-07T16:28:06;13.73;;;6.75;;
75890;SDS011;64571;47.512;19.054;2022-12-07T16:31:19;13.93;;;6.47;;
75890;SDS011;64571;47.512;19.054;2022-12-07T16:34:23;13.62;;;7.35;;
75890;SDS011;64571;47.512;19.054;2022-12-07T16:37:25;13.67;;;6.40;;
75890;SDS011;64571;47.512;19.054;2022-12-07T16:40:28;14.60;;;6.62;;
75890;SDS011;64571;47.512;19.054;2022-12-07T16:43:30;14.85;;;6.07;;
75890;SDS011;64571;47.512;19.054;2022-12-07T16:46:33;15.70;;;6.97;;
75890;SDS011;64571;47.512;19.054;2022-12-07T16:49:37;15.95;;;6.85;;
75890;SDS011;64571;47.512;19.054;2022-12-07T16:52:40;15.90;;;7.63;;
75890;SDS011;64571;47.512;19.054;2022-12-07T16:55:44;15.75;;;6.82;;
75890;SDS011;64571;47.512;19.054;2022-12-07T16:58:47;17.48;;;7.37;;
75890;SDS011;64571;47.512;19.054;2022-12-07T17:01:51;16.23;;;7.05;;
75890;SDS011;64571;47.512;19.054;2022-12-07T17:04:54;20.17;;;8.55;;
75890;SDS011;64571;47.512;19.054;2022-12-07T17:07:56;16.77;;;7.30;;
75890;SDS011;64571;47.512;19.054;2022-12-07T17:10:59;21.08;;;7.90;;
75890;SDS011;64571;47.512;19.054;2022-12-07T17:14:01;16.05;;;7.18;;
75890;SDS011;64571;47.512;19.054;2022-12-07T17:17:22;20.58;;;6.95;;
75890;SDS011;64571;47.512;19.054;2022-12-07T17:20:25;15.52;;;7.28;;
75890;SDS011;64571;47.512;19.054;2022-12-07T17:23:29;14.47;;;7.60;;
75890;SDS011;64571;47.512;19.054;2022-12-07T17:26:32;16.67;;;7.80;;
75890;SDS011;64571;47.512;19.054;2022-12-07T17:29:37;16.20;;;7.20;;
75890;SDS011;64571;47.512;19.054;2022-12-07T17:32:40;14.73;;;6.75;;
75890;SDS011;64571;47.512;19.054;2022-12-07T17:35:42;17.67;;;7.78;;
75890;SDS011;64571;47.512;19.054;2022-12-07T17:38:44;20.60;;;7.63;;
75890;SDS011;64571;47.512;19.054;2022-12-07T17:41:47;15.95;;;7.15;;
75890;SDS011;64571;47.512;19.054;2022-12-07T17:45:09;17.98;;;7.72;;
75890;SDS011;64571;47.512;19.054;2022-12-07T17:48:12;17.40;;;7.35;;
75890;SDS011;64571;47.512;19.054;2022-12-07T17:51:14;18.05;;;7.47;;
75890;SDS011;64571;47.512;19.054;2022-12-07T17:54:35;17.70;;;7.23;;
75890;SDS011;64571;47.512;19.054;2022-12-07T17:57:38;18.02;;;8.20;;
75890;SDS011;64571;47.512;19.054;2022-12-07T18:00:40;17.83;;;8.43;;
75890;SDS011;64571;47.512;19.054;2022-12-07T18:03:43;13.85;;;7.32;;
75890;SDS011;64571;47.512;19.054;2022-12-07T18:06:46;14.43;;;7.20;;
75890;SDS011;64571;47.512;19.054;2022-12-07T18:09:53;15.20;;;7.13;;
75890;SDS011;64571;47.512;19.054;2022-12-07T18:12:56;15.43;;;7.10;;
75890;SDS011;64571;47.512;19.054;2022-12-07T18:16:20;15.80;;;7.43;;
75890;SDS011;64571;47.512;19.054;2022-12-07T18:19:24;17.40;;;8.15;;
75890;SDS011;64571;47.512;19.054;2022-12-07T18:22:27;18.92;;;8.52;;
75890;SDS011;64571;47.512;19.054;2022-12-07T18:25:29;16.70;;;7.73;;
75890;SDS011;64571;47.512;19.054;2022-12-07T18:28:32;17.48;;;7.57;;
75890;SDS011;64571;47.512;19.054;2022-12-07T18:31:35;16.25;;;7.45;;
75890;SDS011;64571;47.512;19.054;2022-12-07T18:34:38;18.42;;;8.07;;
75890;SDS011;64571;47.512;19.054;2022-12-07T18:37:42;18.73;;;8.65;;
75890;SDS011;64571;47.512;19.054;2022-12-07T18:40:44;16.37;;;7.80;;
75890;SDS011;64571;47.512;19.054;2022-12-07T18:43:47;17.02;;;7.12;;
75890;SDS011;64571;47.512;19.054;2022-12-07T18:46:50;17.87;;;8.23;;
75890;SDS011;64571;47.512;19.054;2022-12-07T18:49:52;15.18;;;6.82;;
75890;SDS011;64571;47.512;19.054;2022-12-07T18:52:56;17.85;;;7.95;;
75890;SDS011;64571;47.512;19.054;2022-12-07T18:56:06;18.83;;;8.50;;
75890;SDS011;64571;47.512;19.054;2022-12-07T18:59:14;20.17;;;8.90;;
75890;SDS011;64571;47.512;19.054;2022-12-07T19:02:35;15.90;;;7.20;;
75890;SDS011;64571;47.512;19.054;2022-12-07T19:05:37;15.48;;;7.62;;
75890;SDS011;64571;47.512;19.054;2022-12-07T19:08:40;20.40;;;9.15;;
75890;SDS011;64571;47.512;19.054;2022-12-07T19:11:42;16.70;;;7.97;;
75890;SDS011;64571;47.512;19.054;2022-12-07T19:14:51;20.05;;;9.43;;
75890;SDS011;64571;47.512;19.054;2022-12-07T19:17:56;20.35;;;9.18;;
75890;SDS011;64571;47.512;19.054;2022-12-07T19:21:01;20.20;;;10.13;;
75890;SDS011;64571;47.512;19.054;2022-12-07T19:24:04;20.77;;;9.35;;
75890;SDS011;64571;47.512;19.054;2022-12-07T19:27:08;21.53;;;9.03;;
75890;SDS011;64571;47.512;19.054;2022-12-07T19:30:10;22.08;;;10.00;;
75890;SDS011;64571;47.512;19.054;2022-12-07T19:33:13;23.77;;;10.02;;
75890;SDS011;64571;47.512;19.054;2022-12-07T19:36:16;32.45;;;10.85;;
75890;SDS011;64571;47.512;19.054;2022-12-07T19:39:18;25.35;;;11.27;;
75890;SDS011;64571;47.512;19.054;2022-12-07T19:42:21;22.07;;;9.53;;
75890;SDS011;64571;47.512;19.054;2022-12-07T19:45:23;22.50;;;9.82;;
75890;SDS011;64571;47.512;19.054;2022-12-07T19:48:30;29.37;;;14.23;;
75890;SDS011;64571;47.512;19.054;2022-12-07T19:51:32;21.87;;;10.57;;
75890;SDS011;64571;47.512;19.054;2022-12-07T19:54:35;21.73;;;9.90;;
75890;SDS011;64571;47.512;19.054;2022-12-07T19:57:37;18.03;;;8.97;;
75890;SDS011;64571;47.512;19.054;2022-12-07T20:00:40;19.40;;;9.65;;
75890;SDS011;64571;47.512;19.054;2022-12-07T20:03:43;24.87;;;10.35;;
75890;SDS011;64571;47.512;19.054;2022-12-07T20:06:46;24.15;;;9.55;;